createdAt,value
2022-12-14T00:01:11.156Z,-3.32
2022-12-14T00:03:14.602Z,-3.37
2022-12-14T00:05:19.782Z,-3.04
2022-12-14T00:07:22.545Z,-3.10
2022-12-14T00:09:25.221Z,-3.21
2022-12-14T00:11:28.535Z,-3.15
2022-12-14T00:13:32.588Z,-3.17
2022-12-14T00:15:37.692Z,-3.08
2022-12-14T00:17:40.796Z,-2.95
2022-12-14T00:19:43.504Z,-2.94
2022-12-14T00:21:51.580Z,-3.02
2022-12-14T00:23:55.342Z,-3.08
2022-12-14T00:25:58.087Z,-3.16
2022-12-14T00:28:00.813Z,-3.13
2022-12-14T00:30:05.466Z,-3.21
2022-12-14T00:32:08.186Z,-3.26
2022-12-14T00:34:10.840Z,-3.11
2022-12-14T00:36:14.006Z,-3.21
2022-12-14T00:38:16.688Z,-3.15
2022-12-14T00:40:19.450Z,-3.10
2022-12-14T00:42:22.055Z,-3.10
2022-12-14T00:44:24.650Z,-3.18
2022-12-14T00:46:28.724Z,-3.28
2022-12-14T00:48:32.574Z,-3.31
2022-12-14T00:50:35.706Z,-3.18
2022-12-14T00:52:38.350Z,-3.10
2022-12-14T00:54:41.054Z,-3.16
2022-12-14T00:56:43.784Z,-3.06
2022-12-14T00:58:51.785Z,-3.02
2022-12-14T01:01:00.493Z,-3.24
2022-12-14T01:03:05.556Z,-3.05
2022-12-14T01:05:09.074Z,-3.23
2022-12-14T01:07:11.754Z,-3.05
2022-12-14T01:09:14.878Z,-2.99
2022-12-14T01:11:17.572Z,-3.05
2022-12-14T01:13:20.157Z,-3.22
2022-12-14T01:15:22.884Z,-3.22
2022-12-14T01:17:25.507Z,-2.96
2022-12-14T01:19:29.606Z,-2.90
2022-12-14T01:21:32.864Z,-3.13
2022-12-14T01:23:35.544Z,-3.14
2022-12-14T01:25:38.256Z,-3.05
2022-12-14T01:27:40.950Z,-3.04
2022-12-14T01:29:43.687Z,-3.05
2022-12-14T01:31:48.591Z,-2.97
2022-12-14T01:33:51.642Z,-3.06
2022-12-14T01:35:55.612Z,-3.00
2022-12-14T01:37:58.387Z,-2.90
2022-12-14T01:40:01.090Z,-2.92
2022-12-14T01:42:03.855Z,-2.79
2022-12-14T01:44:39.670Z,-2.98
2022-12-14T01:46:46.569Z,-2.81
2022-12-14T01:48:52.165Z,-3.02
2022-12-14T01:50:56.202Z,-2.82
2022-12-14T01:53:02.462Z,-2.67
2022-12-14T01:55:08.601Z,-2.70
2022-12-14T01:57:12.310Z,-2.79
2022-12-14T01:59:19.108Z,-2.91
2022-12-14T02:01:21.815Z,-2.66
2022-12-14T02:03:28.418Z,-2.65
2022-12-14T02:05:34.468Z,-2.77
2022-12-14T02:07:39.900Z,-2.68
2022-12-14T02:09:45.174Z,-2.62
2022-12-14T02:11:56.951Z,-2.70
2022-12-14T02:13:59.601Z,-2.79
2022-12-14T02:16:02.401Z,-2.67
2022-12-14T02:18:08.983Z,-2.66
2022-12-14T02:20:12.964Z,-2.68
2022-12-14T02:22:39.999Z,-2.86
2022-12-14T02:25:01.487Z,-2.97
2022-12-14T02:27:13.551Z,-2.88
2022-12-14T02:29:45.275Z,-2.76
2022-12-14T02:31:55.484Z,-2.74
2022-12-14T02:34:06.284Z,-2.77
2022-12-14T02:36:18.784Z,-2.83
2022-12-14T02:38:36.287Z,-2.84
2022-12-14T02:40:45.970Z,-2.92
2022-12-14T02:43:02.885Z,-2.92
2022-12-14T02:45:13.866Z,-2.89
2022-12-14T02:47:24.297Z,-2.98
2022-12-14T02:49:43.111Z,-2.79
2022-12-14T02:51:57.098Z,-2.91
2022-12-14T02:54:03.373Z,-2.74
2022-12-14T02:56:10.526Z,-2.96
2022-12-14T02:58:15.311Z,-2.78
2022-12-14T03:00:20.494Z,-3.03
2022-12-14T03:02:24.569Z,-2.87
2022-12-14T03:04:27.257Z,-2.88
2022-12-14T03:06:30.222Z,-2.79
2022-12-14T03:08:35.493Z,-2.88
2022-12-14T03:10:46.140Z,-2.91
2022-12-14T03:12:55.539Z,-2.94
2022-12-14T03:15:00.564Z,-2.99
2022-12-14T03:17:15.185Z,-3.03
2022-12-14T03:19:24.663Z,-2.94
2022-12-14T03:21:31.048Z,-2.93
2022-12-14T03:23:37.336Z,-2.83
2022-12-14T03:25:46.117Z,-2.98
2022-12-14T03:27:56.437Z,-3.01
2022-12-14T03:30:03.260Z,-2.96
2022-12-14T03:32:11.396Z,-2.94
2022-12-14T03:34:16.819Z,-3.06
2022-12-14T03:36:26.622Z,-3.03
2022-12-14T03:38:35.045Z,-2.90
2022-12-14T03:40:43.392Z,-2.87
2022-12-14T03:42:58.222Z,-2.96
2022-12-14T03:45:05.502Z,-2.99
2022-12-14T03:47:22.238Z,-2.92
2022-12-14T03:49:35.843Z,-3.13
2022-12-14T03:51:47.488Z,-2.98
2022-12-14T03:53:57.548Z,-2.92
2022-12-14T03:56:05.127Z,-2.96
2022-12-14T03:58:29.856Z,-3.04
2022-12-14T04:00:38.156Z,-2.91
2022-12-14T04:02:48.816Z,-3.11
2022-12-14T04:04:58.015Z,-3.14
2022-12-14T04:07:09.463Z,-3.00
2022-12-14T04:09:24.634Z,-3.05
2022-12-14T04:11:49.887Z,-3.04
2022-12-14T04:14:15.719Z,-3.09
2022-12-14T04:16:43.162Z,-3.02
2022-12-14T04:19:00.887Z,-2.89
2022-12-14T04:21:10.261Z,-2.89
2022-12-14T04:23:41.055Z,-2.99
2022-12-14T04:26:04.873Z,-3.16
2022-12-14T04:28:33.107Z,-3.03
2022-12-14T04:30:39.363Z,-2.98
2022-12-14T04:32:46.855Z,-3.04
2022-12-14T04:34:55.282Z,-3.15
2022-12-14T04:37:01.042Z,-3.05
2022-12-14T04:39:07.375Z,-3.08
2022-12-14T04:41:15.079Z,-3.15
2022-12-14T04:43:21.885Z,-3.06
2022-12-14T04:45:29.185Z,-3.08
2022-12-14T04:47:44.761Z,-3.14
2022-12-14T04:49:53.381Z,-3.07
2022-12-14T04:52:05.577Z,-2.88
2022-12-14T04:54:13.898Z,-2.93
2022-12-14T04:56:24.211Z,-2.96
2022-12-14T04:58:30.574Z,-2.97
2022-12-14T05:00:38.919Z,-2.87
2022-12-14T05:02:54.390Z,-2.96
2022-12-14T05:05:09.520Z,-2.89
2022-12-14T05:07:20.688Z,-2.67
2022-12-14T05:09:28.314Z,-2.74
2022-12-14T05:14:04.692Z,-2.69
2022-12-14T05:16:08.339Z,-2.69
2022-12-14T05:18:11.799Z,-2.73
2022-12-14T05:20:17.878Z,-2.77
2022-12-14T05:22:20.708Z,-2.77
2022-12-14T05:24:23.412Z,-2.55
2022-12-14T05:26:26.130Z,-2.70
2022-12-14T05:28:28.931Z,-2.64
2022-12-14T05:30:31.690Z,-2.53
2022-12-14T05:32:34.483Z,-2.58
2022-12-14T05:34:37.112Z,-2.74
2022-12-14T05:36:41.117Z,-2.88
2022-12-14T05:38:43.785Z,-2.59
2022-12-14T05:40:46.707Z,-2.87
2022-12-14T05:42:55.260Z,-2.69
2022-12-14T05:44:58.598Z,-2.88
2022-12-14T05:47:01.308Z,-2.58
2022-12-14T05:49:04.013Z,-2.73
2022-12-14T05:51:08.451Z,-2.74
2022-12-14T05:53:12.475Z,-2.78
2022-12-14T05:55:15.223Z,-2.48
2022-12-14T05:57:17.992Z,-2.49
2022-12-14T05:59:20.637Z,-2.47
2022-12-14T06:01:23.353Z,-2.37
2022-12-14T06:03:26.588Z,-2.51
2022-12-14T06:05:29.413Z,-2.63
2022-12-14T06:07:32.140Z,-2.51
2022-12-14T06:09:36.152Z,-2.56
2022-12-14T06:11:40.460Z,-2.67
2022-12-14T06:13:44.395Z,-2.46
2022-12-14T06:15:47.020Z,-2.33
2022-12-14T06:17:50.395Z,-2.48
2022-12-14T06:19:53.099Z,-2.32
2022-12-14T06:21:56.796Z,-2.23
2022-12-14T06:24:00.403Z,-2.54
2022-12-14T06:26:04.702Z,-2.35
2022-12-14T06:28:07.363Z,-2.59
2022-12-14T06:30:12.145Z,-2.82
2022-12-14T06:32:14.941Z,-2.78
2022-12-14T06:34:18.303Z,-2.66
2022-12-14T06:36:23.935Z,-2.52
2022-12-14T06:38:26.775Z,-2.49
2022-12-14T06:40:29.469Z,-2.03
2022-12-14T06:42:33.647Z,-2.01
2022-12-14T06:44:37.421Z,-2.39
2022-12-14T06:46:40.809Z,-2.40
2022-12-14T06:48:43.862Z,-2.37
2022-12-14T06:50:46.538Z,-2.64
2022-12-14T06:52:50.206Z,-2.59
2022-12-14T06:54:52.848Z,-2.53
2022-12-14T06:56:55.495Z,-2.33
2022-12-14T06:58:59.552Z,-2.30
2022-12-14T07:01:03.652Z,-2.58
2022-12-14T07:03:06.533Z,-2.52
2022-12-14T07:05:09.747Z,-2.49
2022-12-14T07:07:12.427Z,-2.50
2022-12-14T07:09:15.660Z,-2.48
2022-12-14T07:11:18.643Z,-2.06
2022-12-14T07:13:22.081Z,-2.29
2022-12-14T07:15:26.126Z,-2.21
2022-12-14T07:17:28.885Z,-2.40
2022-12-14T07:19:31.620Z,-2.50
2022-12-14T07:21:34.508Z,-2.55
2022-12-14T07:23:38.781Z,-2.43
2022-12-14T07:25:41.467Z,-2.12
2022-12-14T07:27:44.151Z,-2.12
2022-12-14T07:29:46.914Z,-2.20
2022-12-14T07:31:51.023Z,-2.06
2022-12-14T07:33:54.382Z,-2.16
2022-12-14T07:36:02.904Z,-2.09
2022-12-14T07:38:05.604Z,-2.44
2022-12-14T07:40:09.996Z,-2.59
2022-12-14T07:42:12.927Z,-2.35
2022-12-14T07:44:15.772Z,-2.46
2022-12-14T07:46:20.438Z,-2.21
2022-12-14T07:48:24.493Z,-2.36
2022-12-14T07:50:27.147Z,-2.44
2022-12-14T07:52:35.717Z,-2.13
2022-12-14T07:54:40.035Z,-1.98
2022-12-14T07:56:44.671Z,-2.00
2022-12-14T07:58:47.542Z,-2.14
2022-12-14T08:00:50.172Z,-1.99
2022-12-14T08:02:56.015Z,-1.85
2022-12-14T08:04:59.991Z,-2.21
2022-12-14T08:07:02.695Z,-2.30
2022-12-14T08:09:06.426Z,-2.10
2022-12-14T08:11:10.116Z,-1.98
2022-12-14T08:13:12.747Z,-1.93
2022-12-14T08:15:15.422Z,-1.82
2022-12-14T08:17:18.036Z,-1.92
2022-12-14T08:19:21.387Z,-1.88
2022-12-14T08:21:26.545Z,-1.71
2022-12-14T08:23:29.542Z,-1.65
2022-12-14T08:25:32.474Z,-1.63
2022-12-14T08:27:35.112Z,-1.58
2022-12-14T08:29:37.845Z,-1.51
2022-12-14T08:31:40.665Z,-1.57
2022-12-14T08:33:45.211Z,-1.93
2022-12-14T08:35:47.912Z,-1.56
2022-12-14T08:37:53.192Z,-1.76
2022-12-14T08:39:55.917Z,-1.85
2022-12-14T08:41:58.594Z,-1.53
2022-12-14T08:44:03.551Z,-1.81
2022-12-14T08:46:07.055Z,-1.51
2022-12-14T08:48:10.037Z,-1.70
2022-12-14T08:50:12.733Z,-1.61
2022-12-14T08:52:16.318Z,-1.66
2022-12-14T08:54:20.354Z,-1.39
2022-12-14T08:56:25.588Z,-1.68
2022-12-14T08:58:28.251Z,-1.70
2022-12-14T09:00:31.032Z,-1.66
2022-12-14T09:02:33.878Z,-1.43
2022-12-14T09:04:36.680Z,-1.58
2022-12-14T09:06:40.521Z,-1.41
2022-12-14T09:08:43.591Z,-1.35
2022-12-14T09:10:51.651Z,-1.38
2022-12-14T09:12:54.308Z,-1.46
2022-12-14T09:14:57.105Z,-1.36
2022-12-14T09:16:59.904Z,-1.13
2022-12-14T09:19:02.658Z,-1.27
2022-12-14T09:21:05.768Z,-1.33
2022-12-14T09:23:08.362Z,-1.17
2022-12-14T09:25:11.423Z,-1.19
2022-12-14T09:27:15.390Z,-1.40
2022-12-14T09:29:19.754Z,-1.37
2022-12-14T09:31:25.083Z,-1.40
2022-12-14T09:33:29.424Z,-1.60
2022-12-14T09:35:32.431Z,-1.39
2022-12-14T09:37:35.491Z,-1.12
2022-12-14T09:39:38.367Z,-1.36
2022-12-14T09:41:53.190Z,-1.46
2022-12-14T09:44:06.387Z,-1.43
2022-12-14T09:46:32.999Z,-1.23
2022-12-14T09:48:36.171Z,-1.49
2022-12-14T09:50:40.721Z,-1.64
2022-12-14T09:52:46.705Z,-1.81
2022-12-14T09:54:50.256Z,-1.82
2022-12-14T09:56:54.163Z,-1.62
2022-12-14T09:58:59.351Z,-1.38
2022-12-14T10:01:39.995Z,-1.88
2022-12-14T10:03:55.414Z,-2.03
2022-12-14T10:06:16.691Z,-1.95
2022-12-14T10:08:24.297Z,-1.89
2022-12-14T10:10:33.796Z,-1.84
2022-12-14T10:12:51.483Z,-1.71
2022-12-14T10:15:05.872Z,-1.83
2022-12-14T10:17:16.861Z,-1.67
2022-12-14T10:19:33.289Z,-1.84
2022-12-14T10:21:46.208Z,-1.38
2022-12-14T10:23:55.822Z,-1.54
2022-12-14T10:26:03.410Z,-1.43
2022-12-14T10:28:14.381Z,-1.61
2022-12-14T10:30:20.098Z,-1.58
2022-12-14T10:32:31.473Z,-1.17
2022-12-14T10:34:35.743Z,-1.03
2022-12-14T10:36:45.803Z,-1.13
2022-12-14T10:38:57.208Z,-1.16
2022-12-14T10:41:06.779Z,-1.37
2022-12-14T10:43:30.322Z,-1.34
2022-12-14T10:45:42.516Z,-1.23
2022-12-14T10:47:50.774Z,-0.90
2022-12-14T10:50:02.563Z,-0.87
2022-12-14T10:52:12.326Z,-0.83
2022-12-14T10:54:26.422Z,-0.88
2022-12-14T10:56:33.978Z,-0.69
2022-12-14T10:58:36.713Z,-0.70
2022-12-14T11:00:39.729Z,-0.30
2022-12-14T11:02:45.004Z,-0.69
2022-12-14T11:04:56.437Z,-0.40
2022-12-14T11:07:01.136Z,-0.53
2022-12-14T11:09:21.168Z,-0.67
2022-12-14T11:11:25.619Z,-0.94
2022-12-14T11:13:28.408Z,-1.08
2022-12-14T11:15:34.458Z,-1.01
2022-12-14T11:17:39.023Z,-1.21
2022-12-14T11:19:41.881Z,-1.25
2022-12-14T11:21:49.802Z,-0.95
2022-12-14T11:23:55.556Z,-0.77
2022-12-14T11:26:00.270Z,-1.22
2022-12-14T11:28:06.863Z,-1.06
2022-12-14T11:30:17.484Z,-1.06
2022-12-14T11:32:24.814Z,-1.29
2022-12-14T11:34:34.491Z,-1.31
2022-12-14T11:36:39.596Z,-1.19
2022-12-14T11:38:43.635Z,-1.07
2022-12-14T11:40:47.043Z,-1.07
2022-12-14T11:42:51.201Z,-0.96
2022-12-14T11:44:55.145Z,-1.18
2022-12-14T11:47:03.642Z,-0.96
2022-12-14T11:49:19.330Z,-0.89
2022-12-14T11:51:22.042Z,-1.06
2022-12-14T11:53:24.737Z,-1.06
2022-12-14T11:55:29.889Z,-0.98
2022-12-14T11:57:36.069Z,-1.14
2022-12-14T11:59:42.053Z,-1.24
2022-12-14T12:01:45.293Z,-1.13
2022-12-14T12:03:50.712Z,-1.13
2022-12-14T12:05:55.090Z,-1.11
2022-12-14T12:07:59.939Z,-0.73
2022-12-14T12:10:07.771Z,-0.43
2022-12-14T12:12:19.218Z,-0.51
2022-12-14T12:14:30.621Z,-0.32
2022-12-14T12:16:35.450Z,-0.51
2022-12-14T12:18:46.494Z,-0.45
2022-12-14T12:20:54.985Z,-0.46
2022-12-14T12:23:05.706Z,-0.53
2022-12-14T12:25:25.936Z,-0.35
2022-12-14T12:27:33.153Z,-0.17
2022-12-14T12:29:40.405Z,-0.48
2022-12-14T12:31:49.353Z,-0.52
2022-12-14T12:33:59.079Z,-0.27
2022-12-14T12:36:05.660Z,-0.24
2022-12-14T12:38:14.925Z,0.07
2022-12-14T12:40:20.649Z,0.16
2022-12-14T12:42:29.745Z,0.25
2022-12-14T12:44:50.211Z,0.21
2022-12-14T12:49:25.308Z,0.05
2022-12-14T12:51:32.190Z,0.26
2022-12-14T12:53:39.621Z,0.31
2022-12-14T12:55:47.211Z,0.33
2022-12-14T12:57:54.561Z,-0.03
2022-12-14T12:59:59.991Z,-0.22
2022-12-14T13:02:17.449Z,-0.19
2022-12-14T13:04:28.863Z,-0.12
2022-12-14T13:06:35.722Z,-0.20
2022-12-14T13:08:41.105Z,-0.18
2022-12-14T13:11:17.234Z,-0.34
2022-12-14T13:13:14.663Z,-0.24
2022-12-14T13:15:24.491Z,-0.27
2022-12-14T13:17:35.355Z,-0.53
2022-12-14T13:19:51.710Z,-0.49
2022-12-14T13:21:59.204Z,-0.38
2022-12-14T13:24:12.189Z,-0.27
2022-12-14T13:26:56.749Z,-0.54
2022-12-14T13:29:05.253Z,-0.71
2022-12-14T13:31:18.079Z,-0.58
2022-12-14T13:33:45.735Z,-0.39
2022-12-14T13:36:20.837Z,-0.64
2022-12-14T13:38:41.449Z,-0.24
2022-12-14T13:41:06.164Z,-0.47
2022-12-14T13:43:30.131Z,-0.53
2022-12-14T13:45:38.774Z,-0.61
2022-12-14T13:47:45.105Z,-0.81
2022-12-14T13:50:18.438Z,-0.65
2022-12-14T13:52:31.462Z,-0.40
2022-12-14T13:54:37.076Z,-0.30
2022-12-14T13:56:40.636Z,-0.39
2022-12-14T13:58:46.340Z,-0.09
2022-12-14T14:00:58.304Z,-0.04
2022-12-14T14:03:02.452Z,-0.06
2022-12-14T14:05:45.889Z,-0.12
2022-12-14T14:07:54.274Z,-0.20
2022-12-14T14:10:04.200Z,-0.40
2022-12-14T14:12:35.770Z,-0.40
2022-12-14T14:14:51.786Z,-0.75
2022-12-14T14:16:57.914Z,-0.69
2022-12-14T14:19:05.565Z,-0.84
2022-12-14T14:21:32.886Z,-0.69
2022-12-14T14:23:39.076Z,-0.56
2022-12-14T14:25:46.888Z,-0.71
2022-12-14T14:27:56.142Z,-0.98
2022-12-14T14:29:59.231Z,-0.94
2022-12-14T14:32:03.601Z,-0.95
2022-12-14T14:34:06.326Z,-0.91
2022-12-14T14:36:11.772Z,-1.06
2022-12-14T14:38:27.324Z,-0.86
2022-12-14T14:41:06.638Z,-1.16
2022-12-14T14:43:05.524Z,-1.17
2022-12-14T14:45:23.979Z,-1.00
2022-12-14T14:47:31.101Z,-1.32
2022-12-14T14:49:39.375Z,-1.15
2022-12-14T14:51:42.078Z,-1.23
2022-12-14T14:53:45.434Z,-1.09
2022-12-14T14:56:04.690Z,-1.11
2022-12-14T14:58:22.519Z,-1.37
2022-12-14T15:00:25.720Z,-1.33
2022-12-14T15:02:34.300Z,-1.22
2022-12-14T15:04:45.508Z,-1.30
2022-12-14T15:06:51.875Z,-1.23
2022-12-14T15:09:00.087Z,-1.17
2022-12-14T15:11:06.095Z,-1.30
2022-12-14T15:13:17.866Z,-1.41
2022-12-14T15:15:27.926Z,-1.30
2022-12-14T15:17:30.881Z,-1.35
2022-12-14T15:19:35.990Z,-1.34
2022-12-14T15:21:39.274Z,-1.24
2022-12-14T15:23:49.239Z,-1.15
2022-12-14T15:26:01.327Z,-1.17
2022-12-14T15:28:08.715Z,-1.20
2022-12-14T15:30:20.882Z,-1.18
2022-12-14T15:32:26.196Z,-1.23
2022-12-14T15:34:29.206Z,-1.30
2022-12-14T15:36:35.417Z,-1.38
2022-12-14T15:38:38.390Z,-1.24
2022-12-14T15:40:41.220Z,-1.17
2022-12-14T15:42:48.215Z,-1.38
2022-12-14T15:44:51.414Z,-1.31
2022-12-14T15:46:55.518Z,-1.28
2022-12-14T15:49:01.288Z,-1.30
2022-12-14T15:51:06.930Z,-1.15
2022-12-14T15:53:14.555Z,-1.30
2022-12-14T15:55:33.209Z,-1.36
2022-12-14T15:57:39.211Z,-1.39
2022-12-14T15:59:45.002Z,-1.35
2022-12-14T16:02:04.755Z,-1.24
2022-12-14T16:04:16.220Z,-1.24
2022-12-14T16:06:19.877Z,-1.27
2022-12-14T16:08:23.465Z,-1.17
2022-12-14T16:10:31.820Z,-1.04
2022-12-14T16:12:45.034Z,-1.37
2022-12-14T16:14:54.162Z,-1.36
2022-12-14T16:16:57.387Z,-1.30
2022-12-14T16:19:20.401Z,-1.26
2022-12-14T16:21:29.982Z,-1.47
2022-12-14T16:23:39.196Z,-1.41
2022-12-14T16:25:52.414Z,-1.36
2022-12-14T16:27:55.676Z,-1.48
2022-12-14T16:30:22.898Z,-1.53
2022-12-14T16:32:25.663Z,-1.40
2022-12-14T16:34:28.646Z,-1.42
2022-12-14T16:36:36.571Z,-1.38
2022-12-14T16:38:42.597Z,-1.66
2022-12-14T16:40:54.096Z,-1.54
2022-12-14T16:42:56.848Z,-1.62
2022-12-14T16:44:59.610Z,-1.83
2022-12-14T16:47:26.195Z,-1.79
2022-12-14T16:49:33.301Z,-1.85
2022-12-14T16:54:04.904Z,-1.97
2022-12-14T16:56:17.178Z,-1.88
2022-12-14T16:58:19.855Z,-1.87
2022-12-14T17:00:26.344Z,-1.80
2022-12-14T17:02:33.267Z,-1.74
2022-12-14T17:04:38.666Z,-1.77
2022-12-14T17:06:48.563Z,-1.75
2022-12-14T17:08:51.643Z,-1.87
2022-12-14T17:10:55.134Z,-1.72
2022-12-14T17:12:58.913Z,-1.83
2022-12-14T17:15:04.409Z,-1.66
2022-12-14T17:17:07.446Z,-1.84
2022-12-14T17:19:18.778Z,-1.71
2022-12-14T17:21:26.186Z,-1.60
2022-12-14T17:23:30.977Z,-1.62
2022-12-14T17:25:34.213Z,-1.45
2022-12-14T17:27:37.012Z,-1.74
2022-12-14T17:29:39.668Z,-1.55
2022-12-14T17:31:50.082Z,-1.64
2022-12-14T17:33:54.796Z,-1.58
2022-12-14T17:35:57.550Z,-1.60
2022-12-14T17:38:00.471Z,-1.65
2022-12-14T17:40:05.775Z,-1.68
2022-12-14T17:42:12.026Z,-1.89
2022-12-14T17:44:16.213Z,-1.62
2022-12-14T17:46:18.917Z,-1.92
2022-12-14T17:48:22.229Z,-1.88
2022-12-14T17:50:25.901Z,-1.89
2022-12-14T17:52:31.681Z,-2.00
2022-12-14T17:54:34.853Z,-1.83
2022-12-14T17:56:38.867Z,-1.95
2022-12-14T17:58:45.408Z,-1.74
2022-12-14T18:01:04.613Z,-1.93
2022-12-14T18:03:07.671Z,-1.91
2022-12-14T18:05:18.591Z,-1.76
2022-12-14T18:07:21.239Z,-1.75
2022-12-14T18:09:23.894Z,-1.68
2022-12-14T18:11:27.938Z,-1.68
2022-12-14T18:13:32.604Z,-1.98
2022-12-14T18:15:38.942Z,-2.13
2022-12-14T18:17:41.736Z,-1.99
2022-12-14T18:19:44.835Z,-2.13
2022-12-14T18:21:50.563Z,-1.92
2022-12-14T18:23:53.709Z,-1.93
2022-12-14T18:25:58.969Z,-1.87
2022-12-14T18:28:02.800Z,-1.77
2022-12-14T18:30:08.511Z,-2.05
2022-12-14T18:32:14.795Z,-1.93
2022-12-14T18:34:17.473Z,-2.06
2022-12-14T18:36:21.586Z,-2.05
2022-12-14T18:38:24.698Z,-1.88
2022-12-14T18:40:29.624Z,-1.71
2022-12-14T18:42:32.282Z,-1.79
2022-12-14T18:44:34.981Z,-1.96
2022-12-14T18:46:39.291Z,-1.91
2022-12-14T18:48:43.195Z,-1.85
2022-12-14T18:50:46.037Z,-1.82
2022-12-14T18:52:52.758Z,-1.89
2022-12-14T18:54:55.428Z,-1.92
2022-12-14T18:56:58.033Z,-2.02
2022-12-14T18:59:01.416Z,-2.19
2022-12-14T19:01:04.422Z,-2.12
2022-12-14T19:03:08.528Z,-2.13
2022-12-14T19:05:11.767Z,-2.13
2022-12-14T19:07:15.670Z,-1.95
2022-12-14T19:09:18.447Z,-2.10
2022-12-14T19:11:30.331Z,-2.17
2022-12-14T19:13:33.344Z,-2.13
2022-12-14T19:15:36.852Z,-2.17
2022-12-14T19:17:39.655Z,-2.10
2022-12-14T19:19:44.723Z,-2.19
2022-12-14T19:21:47.470Z,-2.24
2022-12-14T19:23:50.242Z,-2.20
2022-12-14T19:25:52.848Z,-2.24
2022-12-14T19:30:22.785Z,-2.02
2022-12-14T19:32:25.793Z,-1.91
2022-12-14T19:34:28.446Z,-1.78
2022-12-14T19:36:32.467Z,-1.75
2022-12-14T19:38:35.679Z,-1.90
2022-12-14T19:40:38.328Z,-1.88
2022-12-14T19:42:41.221Z,-2.09
2022-12-14T19:44:44.094Z,-2.02
2022-12-14T19:46:51.944Z,-2.06
2022-12-14T19:48:55.653Z,-2.08
2022-12-14T19:50:58.313Z,-1.99
2022-12-14T19:53:02.329Z,-2.10
2022-12-14T19:55:05.450Z,-2.04
2022-12-14T19:57:08.504Z,-2.02
2022-12-14T19:59:11.243Z,-1.91
2022-12-14T20:01:16.231Z,-2.09
2022-12-14T20:03:19.131Z,-2.02
2022-12-14T20:05:22.253Z,-1.98
2022-12-14T20:07:24.902Z,-1.94
2022-12-14T20:09:28.989Z,-2.07
2022-12-14T20:11:31.609Z,-2.07
2022-12-14T20:13:34.767Z,-2.04
2022-12-14T20:15:38.769Z,-2.09
2022-12-14T20:17:41.433Z,-2.09
2022-12-14T20:19:44.536Z,-2.08
2022-12-14T20:21:47.176Z,-2.17
2022-12-14T20:23:50.158Z,-2.03
2022-12-14T20:25:54.204Z,-2.04
2022-12-14T20:27:56.860Z,-2.21
2022-12-14T20:29:59.668Z,-2.24
2022-12-14T20:32:02.369Z,-2.37
2022-12-14T20:34:06.499Z,-2.12
2022-12-14T20:36:10.055Z,-2.05
2022-12-14T20:38:12.813Z,-2.06
2022-12-14T20:40:15.614Z,-2.01
2022-12-14T20:42:19.572Z,-2.02
2022-12-14T20:44:22.303Z,-1.92
2022-12-14T20:46:28.479Z,-2.22
2022-12-14T20:48:31.879Z,-2.29
2022-12-14T20:50:35.104Z,-2.24
2022-12-14T20:52:38.284Z,-2.11
2022-12-14T20:54:40.884Z,-2.09
2022-12-14T20:56:44.924Z,-2.19
2022-12-14T20:58:53.585Z,-2.28
2022-12-14T21:00:56.293Z,-2.20
2022-12-14T21:02:59.077Z,-2.17
2022-12-14T21:05:01.856Z,-2.10
2022-12-14T21:07:04.469Z,-2.22
2022-12-14T21:09:11.529Z,-2.26
2022-12-14T21:11:27.974Z,-2.14
2022-12-14T21:13:31.105Z,-2.10
2022-12-14T21:15:36.272Z,-2.11
2022-12-14T21:17:39.067Z,-2.13
2022-12-14T21:19:42.054Z,-2.38
2022-12-14T21:21:51.470Z,-2.35
2022-12-14T21:23:56.148Z,-2.28
2022-12-14T21:26:02.483Z,-2.25
2022-12-14T21:28:05.526Z,-2.26
2022-12-14T21:30:10.441Z,-2.20
2022-12-14T21:32:15.034Z,-2.27
2022-12-14T21:34:20.217Z,-2.09
2022-12-14T21:36:23.179Z,-2.33
2022-12-14T21:38:25.944Z,-2.33
2022-12-14T21:40:46.137Z,-2.28
2022-12-14T21:42:50.437Z,-2.18
2022-12-14T21:44:54.302Z,-2.13
2022-12-14T21:46:57.335Z,-2.06
2022-12-14T21:49:01.514Z,-2.11
2022-12-14T21:51:07.406Z,-2.18
2022-12-14T21:53:10.086Z,-2.50
2022-12-14T21:55:13.081Z,-2.40
2022-12-14T21:57:34.816Z,-2.47
2022-12-14T21:59:39.919Z,-2.55
2022-12-14T22:01:43.366Z,-2.31
2022-12-14T22:03:46.155Z,-2.38
2022-12-14T22:05:53.603Z,-2.22
2022-12-14T22:07:56.631Z,-2.15
2022-12-14T22:09:59.434Z,-2.37
2022-12-14T22:12:02.104Z,-2.24
2022-12-14T22:14:05.419Z,-2.10
2022-12-14T22:16:08.745Z,-2.13
2022-12-14T22:18:12.334Z,-2.27
2022-12-14T22:20:15.417Z,-2.34
2022-12-14T22:22:19.477Z,-2.29
2022-12-14T22:24:24.091Z,-2.14
2022-12-14T22:26:26.736Z,-2.13
2022-12-14T22:28:29.419Z,-2.24
2022-12-14T22:30:32.206Z,-2.44
2022-12-14T22:32:34.866Z,-2.38
2022-12-14T22:34:37.632Z,-2.31
2022-12-14T22:36:40.285Z,-2.27
2022-12-14T22:38:44.803Z,-2.14
2022-12-14T22:40:47.553Z,-2.22
2022-12-14T22:42:50.220Z,-2.48
2022-12-14T22:44:53.210Z,-2.58
2022-12-14T22:46:55.923Z,-2.47
2022-12-14T22:48:58.654Z,-2.54
2022-12-14T22:51:02.218Z,-2.36
2022-12-14T22:53:05.026Z,-2.48
2022-12-14T22:55:09.965Z,-2.29
2022-12-14T22:57:17.974Z,-2.31
2022-12-14T22:59:25.039Z,-2.36
2022-12-14T23:01:28.266Z,-2.29
2022-12-14T23:03:31.651Z,-2.12
2022-12-14T23:05:34.696Z,-2.16
2022-12-14T23:07:37.778Z,-2.40
2022-12-14T23:09:58.058Z,-2.19
2022-12-14T23:12:21.859Z,-2.27
2022-12-14T23:14:42.457Z,-2.18
2022-12-14T23:17:02.805Z,-2.11
2022-12-14T23:19:22.985Z,-2.22
2022-12-14T23:21:43.334Z,-2.33
2022-12-14T23:24:04.850Z,-2.17
2022-12-14T23:26:25.231Z,-2.10
2022-12-14T23:28:50.032Z,-2.00
2022-12-14T23:31:10.779Z,-2.00
2022-12-14T23:33:31.487Z,-2.28
2022-12-14T23:35:51.892Z,-2.34
2022-12-14T23:38:12.240Z,-2.13
2022-12-14T23:40:32.920Z,-2.03
2022-12-14T23:42:53.226Z,-2.13
2022-12-14T23:45:14.711Z,-2.16
2022-12-14T23:47:34.959Z,-1.98
2022-12-14T23:49:55.138Z,-2.18
2022-12-14T23:52:15.524Z,-2.21
2022-12-14T23:54:35.985Z,-2.13
2022-12-14T23:56:56.193Z,-2.03
2022-12-14T23:59:18.682Z,-2.07
